createdAt,value
2023-04-30T00:01:11.110Z,5.88
2023-04-30T00:03:38.437Z,6.20
2023-04-30T00:06:05.648Z,7.60
2023-04-30T00:08:32.842Z,6.57
2023-04-30T00:10:59.957Z,7.20
2023-04-30T00:13:27.058Z,7.32
2023-04-30T00:15:54.222Z,6.28
2023-04-30T00:18:21.510Z,6.20
2023-04-30T00:20:48.636Z,6.65
2023-04-30T00:23:15.781Z,6.82
2023-04-30T00:25:42.878Z,4.50
2023-04-30T00:28:10.034Z,5.28
2023-04-30T00:30:37.136Z,6.43
2023-04-30T00:33:04.290Z,4.80
2023-04-30T00:35:31.386Z,7.15
2023-04-30T00:37:58.492Z,5.65
2023-04-30T00:40:25.627Z,8.00
2023-04-30T00:42:55.628Z,6.22
2023-04-30T00:45:23.504Z,7.28
2023-04-30T00:47:50.887Z,7.20
2023-04-30T00:50:18.279Z,6.38
2023-04-30T00:52:45.779Z,6.82
2023-04-30T00:55:13.404Z,6.97
2023-04-30T00:57:43.418Z,7.25
2023-04-30T01:00:11.449Z,6.53
2023-04-30T01:02:39.060Z,6.32
2023-04-30T01:05:06.790Z,5.63
2023-04-30T01:07:38.946Z,5.55
2023-04-30T01:10:07.124Z,7.75
2023-04-30T01:12:34.210Z,7.32
2023-04-30T01:15:01.519Z,8.27
2023-04-30T01:17:39.125Z,7.57
2023-04-30T01:20:07.552Z,6.55
2023-04-30T01:22:43.375Z,7.07
2023-04-30T01:25:29.269Z,6.03
2023-04-30T01:28:06.958Z,6.40
2023-04-30T01:30:34.790Z,6.07
2023-04-30T01:33:02.266Z,7.43
2023-04-30T01:35:49.682Z,7.15
2023-04-30T01:38:16.753Z,6.25
2023-04-30T01:40:45.505Z,6.80
2023-04-30T01:43:18.374Z,6.10
2023-04-30T01:45:48.629Z,7.38
2023-04-30T01:48:15.725Z,6.07
2023-04-30T01:50:53.952Z,5.75
2023-04-30T01:53:33.884Z,7.05
2023-04-30T01:56:03.271Z,7.03
2023-04-30T01:58:31.386Z,6.35
2023-04-30T02:00:58.535Z,7.72
2023-04-30T02:03:25.828Z,6.55
2023-04-30T02:05:54.063Z,7.88
2023-04-30T02:08:21.333Z,7.78
2023-04-30T02:10:48.471Z,6.75
2023-04-30T02:13:15.721Z,7.43
2023-04-30T02:15:42.897Z,7.15
2023-04-30T02:18:10.097Z,7.97
2023-04-30T02:20:37.309Z,7.00
2023-04-30T02:23:04.460Z,7.03
2023-04-30T02:25:33.020Z,8.38
2023-04-30T02:28:00.300Z,11.30
2023-04-30T02:30:27.415Z,9.57
2023-04-30T02:32:54.580Z,8.27
2023-04-30T02:35:21.806Z,9.13
2023-04-30T02:37:48.938Z,7.22
2023-04-30T02:40:16.097Z,9.70
2023-04-30T02:42:43.226Z,10.82
2023-04-30T02:45:10.543Z,9.10
2023-04-30T02:47:37.781Z,7.25
2023-04-30T02:50:05.694Z,8.80
2023-04-30T02:52:32.965Z,9.43
2023-04-30T02:55:00.075Z,9.45
2023-04-30T02:57:27.247Z,6.28
2023-04-30T02:59:54.598Z,9.60
2023-04-30T03:02:23.614Z,7.45
2023-04-30T03:04:50.932Z,9.18
2023-04-30T03:07:18.084Z,10.10
2023-04-30T03:09:46.517Z,9.68
2023-04-30T03:12:14.708Z,7.13
2023-04-30T03:14:42.090Z,8.43
2023-04-30T03:17:09.240Z,8.02
2023-04-30T03:19:36.336Z,8.20
2023-04-30T03:22:03.484Z,7.68
2023-04-30T03:24:30.809Z,8.70
2023-04-30T03:26:57.916Z,9.43
2023-04-30T03:29:25.153Z,9.38
2023-04-30T03:31:52.619Z,11.73
2023-04-30T03:34:19.927Z,8.13
2023-04-30T03:36:47.289Z,9.52
2023-04-30T03:39:16.154Z,8.65
2023-04-30T03:41:43.465Z,8.43
2023-04-30T03:44:15.700Z,8.88
2023-04-30T03:46:43.816Z,10.30
2023-04-30T03:49:11.231Z,8.02
2023-04-30T03:51:41.933Z,9.38
2023-04-30T03:54:09.832Z,10.07
2023-04-30T03:56:37.080Z,12.15
2023-04-30T03:59:04.772Z,8.57
2023-04-30T04:01:32.070Z,9.40
2023-04-30T04:03:59.436Z,12.50
2023-04-30T04:06:26.946Z,10.45
2023-04-30T04:08:54.263Z,9.32
2023-04-30T04:11:21.467Z,8.63
2023-04-30T04:13:48.624Z,9.65
2023-04-30T04:16:15.919Z,9.38
2023-04-30T04:18:43.074Z,13.90
2023-04-30T04:21:10.199Z,9.20
2023-04-30T04:23:37.321Z,11.30
2023-04-30T04:26:04.556Z,10.65
2023-04-30T04:28:31.992Z,11.57
2023-04-30T04:30:59.635Z,10.38
2023-04-30T04:33:27.810Z,12.25
2023-04-30T04:35:54.991Z,11.15
2023-04-30T04:38:22.884Z,10.50
2023-04-30T04:40:53.774Z,10.15
2023-04-30T04:43:20.952Z,11.73
2023-04-30T04:45:48.076Z,9.88
2023-04-30T04:48:15.443Z,11.00
2023-04-30T04:50:42.575Z,8.05
2023-04-30T04:53:09.746Z,11.07
2023-04-30T04:55:37.089Z,10.80
2023-04-30T04:58:04.326Z,8.73
2023-04-30T05:00:31.442Z,10.77
2023-04-30T05:02:58.638Z,9.60
2023-04-30T05:05:25.835Z,9.50
2023-04-30T05:07:54.946Z,10.13
2023-04-30T05:10:22.128Z,9.70
2023-04-30T05:12:49.250Z,10.88
2023-04-30T05:15:16.336Z,10.20
2023-04-30T05:17:43.513Z,11.20
2023-04-30T05:20:11.783Z,9.52
2023-04-30T05:22:39.080Z,9.55
2023-04-30T05:25:06.701Z,8.82
2023-04-30T05:27:34.196Z,9.93
2023-04-30T05:30:01.532Z,8.48
2023-04-30T05:32:28.720Z,8.00
2023-04-30T05:34:55.817Z,9.63
2023-04-30T05:37:23.000Z,9.20
2023-04-30T05:39:50.473Z,9.02
2023-04-30T05:42:17.615Z,8.48
2023-04-30T05:44:44.759Z,10.20
2023-04-30T05:47:11.843Z,8.50
2023-04-30T05:49:39.046Z,9.98
2023-04-30T05:52:06.426Z,9.30
2023-04-30T05:54:33.652Z,11.27
2023-04-30T05:57:00.919Z,9.20
2023-04-30T05:59:28.029Z,9.85
2023-04-30T06:01:55.183Z,8.98
2023-04-30T06:04:22.314Z,11.02
2023-04-30T06:06:49.502Z,7.65
2023-04-30T06:09:16.734Z,10.20
2023-04-30T06:11:45.752Z,11.38
2023-04-30T06:14:12.844Z,8.98
2023-04-30T06:16:40.095Z,7.72
2023-04-30T06:19:07.229Z,9.70
2023-04-30T06:21:34.302Z,9.05
2023-04-30T06:24:01.404Z,9.50
2023-04-30T06:26:28.514Z,8.77
2023-04-30T06:28:56.052Z,9.68
2023-04-30T06:31:23.485Z,7.65
2023-04-30T06:33:50.911Z,7.00
2023-04-30T06:36:18.796Z,7.07
2023-04-30T06:38:47.006Z,7.35
2023-04-30T06:41:14.439Z,7.25
2023-04-30T06:43:41.566Z,5.85
2023-04-30T06:46:08.720Z,5.53
2023-04-30T06:48:35.885Z,6.25
2023-04-30T06:51:02.983Z,5.95
2023-04-30T06:53:30.136Z,4.88
2023-04-30T06:55:57.237Z,6.05
2023-04-30T06:58:24.380Z,5.72
2023-04-30T07:00:52.285Z,5.80
2023-04-30T07:03:19.528Z,5.78
2023-04-30T07:05:46.747Z,5.25
2023-04-30T07:08:15.155Z,4.60
2023-04-30T07:10:42.264Z,5.43
2023-04-30T07:13:09.386Z,5.13
2023-04-30T07:15:37.173Z,5.53
2023-04-30T07:18:04.426Z,5.22
2023-04-30T07:20:31.751Z,4.72
2023-04-30T07:22:58.825Z,5.18
2023-04-30T07:25:25.970Z,4.93
2023-04-30T07:27:53.573Z,5.05
2023-04-30T07:30:21.446Z,4.72
2023-04-30T07:32:50.179Z,5.20
2023-04-30T07:35:17.796Z,5.32
2023-04-30T07:37:45.016Z,5.10
2023-04-30T07:40:25.468Z,5.05
2023-04-30T07:43:02.296Z,5.68
2023-04-30T07:45:29.416Z,5.70
2023-04-30T07:47:56.657Z,5.57
2023-04-30T07:50:23.828Z,5.22
2023-04-30T07:52:50.927Z,6.18
2023-04-30T07:55:18.108Z,5.97
2023-04-30T07:57:45.220Z,5.30
2023-04-30T08:00:13.520Z,6.53
2023-04-30T08:02:40.916Z,5.25
2023-04-30T08:05:09.284Z,6.35
2023-04-30T08:07:36.504Z,4.88
2023-04-30T08:10:03.624Z,5.95
2023-04-30T08:12:31.001Z,4.75
2023-04-30T08:15:02.158Z,5.07
2023-04-30T08:17:29.344Z,4.88
2023-04-30T08:19:56.771Z,5.15
2023-04-30T08:22:24.119Z,5.45
2023-04-30T08:24:51.436Z,5.55
2023-04-30T08:27:18.581Z,6.35
2023-04-30T08:29:45.727Z,6.05
2023-04-30T08:32:12.883Z,6.78
2023-04-30T08:34:43.561Z,6.07
2023-04-30T08:37:10.726Z,6.00
2023-04-30T08:39:37.856Z,5.72
2023-04-30T08:42:08.899Z,5.13
2023-04-30T08:44:43.538Z,5.40
2023-04-30T08:49:37.675Z,4.85
2023-04-30T08:52:04.849Z,5.00
2023-04-30T08:54:35.568Z,5.28
2023-04-30T08:57:03.539Z,5.18
2023-04-30T08:59:30.827Z,4.90
2023-04-30T09:01:58.013Z,4.70
2023-04-30T09:04:25.229Z,4.63
2023-04-30T09:06:58.886Z,4.93
2023-04-30T09:09:38.314Z,4.50
2023-04-30T09:12:18.688Z,4.22
2023-04-30T09:14:59.484Z,4.93
2023-04-30T09:17:26.635Z,5.15
2023-04-30T09:19:54.383Z,4.20
2023-04-30T09:22:23.044Z,3.90
2023-04-30T09:24:51.303Z,5.07
2023-04-30T09:27:24.618Z,4.82
2023-04-30T09:29:51.840Z,4.15
2023-04-30T09:32:19.322Z,5.50
2023-04-30T09:34:46.430Z,4.03
2023-04-30T09:37:13.622Z,5.45
2023-04-30T09:39:55.112Z,7.50
2023-04-30T09:42:22.959Z,5.07
2023-04-30T09:44:50.167Z,5.85
2023-04-30T09:47:21.207Z,5.10
2023-04-30T09:49:51.555Z,6.57
2023-04-30T09:52:19.161Z,4.85
2023-04-30T09:54:46.893Z,4.63
2023-04-30T09:57:17.048Z,4.88
2023-04-30T09:59:44.967Z,4.78
2023-04-30T10:02:13.995Z,4.88
2023-04-30T10:04:43.212Z,4.68
2023-04-30T10:07:15.505Z,5.07
2023-04-30T10:10:00.210Z,5.03
2023-04-30T10:12:33.357Z,6.88
2023-04-30T10:15:04.930Z,5.90
2023-04-30T10:17:34.908Z,5.47
2023-04-30T10:20:07.533Z,5.70
2023-04-30T10:22:36.008Z,4.70
2023-04-30T10:25:03.763Z,5.07
2023-04-30T10:27:31.279Z,4.38
2023-04-30T10:29:58.564Z,5.43
2023-04-30T10:32:28.392Z,4.10
2023-04-30T10:35:11.182Z,5.65
2023-04-30T10:37:46.881Z,5.38
2023-04-30T10:40:14.946Z,4.30
2023-04-30T10:42:49.503Z,8.32
2023-04-30T10:45:17.392Z,4.60
2023-04-30T10:47:48.088Z,4.40
2023-04-30T10:50:15.327Z,4.07
2023-04-30T10:52:42.502Z,4.07
2023-04-30T10:55:10.354Z,4.20
2023-04-30T10:57:45.408Z,4.97
2023-04-30T11:00:14.332Z,4.32
2023-04-30T11:02:48.891Z,3.63
2023-04-30T11:05:18.190Z,4.18
2023-04-30T11:07:52.295Z,4.40
2023-04-30T11:10:23.254Z,4.60
2023-04-30T11:12:54.337Z,4.35
2023-04-30T11:15:22.811Z,5.03
2023-04-30T11:17:50.223Z,4.07
2023-04-30T11:20:21.415Z,3.92
2023-04-30T11:22:48.605Z,4.13
2023-04-30T11:25:24.544Z,3.45
2023-04-30T11:27:51.725Z,7.57
2023-04-30T11:30:19.344Z,5.00
2023-04-30T11:32:47.804Z,3.70
2023-04-30T11:35:18.393Z,4.70
2023-04-30T11:37:45.617Z,3.83
2023-04-30T11:40:14.152Z,5.35
2023-04-30T11:42:46.163Z,5.40
2023-04-30T11:45:17.361Z,3.53
2023-04-30T11:47:44.732Z,3.25
2023-04-30T11:50:12.953Z,3.65
2023-04-30T11:52:43.792Z,4.00
2023-04-30T11:55:15.529Z,3.45
2023-04-30T11:57:43.761Z,3.88
2023-04-30T12:00:12.159Z,3.08
2023-04-30T12:02:39.803Z,3.05
2023-04-30T12:05:13.719Z,2.90
2023-04-30T12:07:40.879Z,2.70
2023-04-30T12:10:08.616Z,3.80
2023-04-30T12:12:38.181Z,2.97
2023-04-30T12:15:16.125Z,4.07
2023-04-30T12:17:43.868Z,3.13
2023-04-30T12:20:12.193Z,3.20
2023-04-30T12:22:39.405Z,3.22
2023-04-30T12:25:09.445Z,3.15
2023-04-30T12:27:37.158Z,3.17
2023-04-30T12:30:08.278Z,4.38
2023-04-30T12:32:42.757Z,3.50
2023-04-30T12:35:13.911Z,2.58
2023-04-30T12:37:53.150Z,3.25
2023-04-30T12:40:21.742Z,3.55
2023-04-30T12:42:49.044Z,3.30
2023-04-30T12:45:34.814Z,3.05
2023-04-30T12:48:02.048Z,5.28
2023-04-30T12:50:29.384Z,5.35
2023-04-30T12:52:58.207Z,9.90
2023-04-30T12:55:25.352Z,3.15
2023-04-30T12:58:06.309Z,3.42
2023-04-30T13:00:45.885Z,3.88
2023-04-30T13:03:13.830Z,11.30
2023-04-30T13:05:41.856Z,6.05
2023-04-30T13:08:09.699Z,3.58
2023-04-30T13:10:36.845Z,3.85
2023-04-30T13:13:03.957Z,2.80
2023-04-30T13:15:31.242Z,4.95
2023-04-30T13:17:58.623Z,2.70
2023-04-30T13:20:26.438Z,3.85
2023-04-30T13:22:53.967Z,2.60
2023-04-30T13:25:22.037Z,2.63
2023-04-30T13:27:49.201Z,3.55
2023-04-30T13:30:16.331Z,2.70
2023-04-30T13:32:43.473Z,3.28
2023-04-30T13:35:11.515Z,2.95
2023-04-30T13:37:39.092Z,2.72
2023-04-30T13:40:08.127Z,2.97
2023-04-30T13:42:38.002Z,6.38
2023-04-30T13:45:06.195Z,3.30
2023-04-30T13:47:33.621Z,4.28
2023-04-30T13:50:01.121Z,3.15
2023-04-30T13:52:28.247Z,3.58
2023-04-30T13:54:55.712Z,3.40
2023-04-30T13:57:22.951Z,3.53
2023-04-30T13:59:50.295Z,2.72
2023-04-30T14:02:18.872Z,3.47
2023-04-30T14:04:58.174Z,3.58
2023-04-30T14:07:32.596Z,2.90
2023-04-30T14:09:59.757Z,3.65
2023-04-30T14:12:26.884Z,2.83
2023-04-30T14:14:54.274Z,3.78
2023-04-30T14:17:21.579Z,3.60
2023-04-30T14:19:48.809Z,3.05
2023-04-30T14:22:16.947Z,2.67
2023-04-30T14:24:44.153Z,2.40
2023-04-30T14:27:11.273Z,2.42
2023-04-30T14:29:38.402Z,4.80
2023-04-30T14:32:07.605Z,3.35
2023-04-30T14:34:35.050Z,2.70
2023-04-30T14:37:03.591Z,2.25
2023-04-30T14:39:30.720Z,3.63
2023-04-30T14:41:57.827Z,3.85
2023-04-30T14:44:25.573Z,2.63
2023-04-30T14:46:52.994Z,2.47
2023-04-30T14:49:20.104Z,2.95
2023-04-30T14:51:47.320Z,3.00
2023-04-30T14:54:14.611Z,3.40
2023-04-30T14:56:41.820Z,4.13
2023-04-30T14:59:08.936Z,3.30
2023-04-30T15:01:36.098Z,2.95
2023-04-30T15:04:03.508Z,4.68
2023-04-30T15:06:30.972Z,4.20
2023-04-30T15:08:58.220Z,3.20
2023-04-30T15:11:25.380Z,3.13
2023-04-30T15:13:55.107Z,5.15
2023-04-30T15:16:22.831Z,5.32
2023-04-30T15:18:50.514Z,3.10
2023-04-30T15:21:18.390Z,3.47
2023-04-30T15:23:45.884Z,3.67
2023-04-30T15:26:13.128Z,5.25
2023-04-30T15:28:40.333Z,3.40
2023-04-30T15:31:07.546Z,3.40
2023-04-30T15:33:39.547Z,4.85
2023-04-30T15:36:07.149Z,2.78
2023-04-30T15:38:35.280Z,2.80
2023-04-30T15:41:02.453Z,3.95
2023-04-30T15:43:30.071Z,3.28
2023-04-30T15:45:57.551Z,3.53
2023-04-30T15:48:25.645Z,3.03
2023-04-30T15:50:52.835Z,2.92
2023-04-30T15:53:19.943Z,3.10
2023-04-30T15:55:48.642Z,3.65
2023-04-30T15:58:16.195Z,3.55
2023-04-30T16:00:43.597Z,3.45
2023-04-30T16:03:11.677Z,3.63
2023-04-30T16:05:40.506Z,3.05
2023-04-30T16:08:10.945Z,4.68
2023-04-30T16:10:38.843Z,3.60
2023-04-30T16:13:06.069Z,5.55
2023-04-30T16:15:33.312Z,3.60
2023-04-30T16:18:00.831Z,3.35
2023-04-30T16:20:28.181Z,4.15
2023-04-30T16:22:56.366Z,4.53
2023-04-30T16:25:23.720Z,2.85
2023-04-30T16:27:51.598Z,4.40
2023-04-30T16:30:18.770Z,3.55
2023-04-30T16:32:45.953Z,3.00
2023-04-30T16:35:13.131Z,3.10
2023-04-30T16:37:40.346Z,4.10
2023-04-30T16:40:08.248Z,3.40
2023-04-30T16:42:35.663Z,3.60
2023-04-30T16:45:03.189Z,4.47
2023-04-30T16:47:30.409Z,2.80
2023-04-30T16:49:58.650Z,3.10
2023-04-30T16:52:26.030Z,3.42
2023-04-30T16:54:53.215Z,3.40
2023-04-30T16:57:21.090Z,3.65
2023-04-30T16:59:48.536Z,6.72
2023-04-30T17:02:16.002Z,4.28
2023-04-30T17:04:43.162Z,4.03
2023-04-30T17:07:12.540Z,4.05
2023-04-30T17:09:39.685Z,2.55
2023-04-30T17:12:07.530Z,3.03
2023-04-30T17:14:34.973Z,3.78
2023-04-30T17:17:02.151Z,4.97
2023-04-30T17:19:29.396Z,4.55
2023-04-30T17:21:56.660Z,4.80
2023-04-30T17:24:24.274Z,3.45
2023-04-30T17:26:51.555Z,3.63
2023-04-30T17:29:20.876Z,3.15
2023-04-30T17:31:48.837Z,4.68
2023-04-30T17:34:16.521Z,3.35
2023-04-30T17:36:44.467Z,7.47
2023-04-30T17:39:12.673Z,4.47
2023-04-30T17:41:39.836Z,3.80
2023-04-30T17:44:07.048Z,4.00
2023-04-30T17:46:34.480Z,3.28
2023-04-30T17:49:03.478Z,3.88
2023-04-30T17:51:31.661Z,4.00
2023-04-30T17:53:59.777Z,4.75
2023-04-30T17:56:28.647Z,6.57
2023-04-30T17:58:55.903Z,4.75
2023-04-30T18:01:26.920Z,6.97
2023-04-30T18:03:54.432Z,4.55
2023-04-30T18:06:21.796Z,5.88
2023-04-30T18:08:49.145Z,4.82
2023-04-30T18:11:16.259Z,4.88
2023-04-30T18:13:43.414Z,4.95
2023-04-30T18:16:10.663Z,9.07
2023-04-30T18:18:37.932Z,4.68
2023-04-30T18:21:05.187Z,4.75
2023-04-30T18:23:32.426Z,4.47
2023-04-30T18:25:59.646Z,4.95
2023-04-30T18:28:26.752Z,5.97
2023-04-30T18:30:54.617Z,4.15
2023-04-30T18:33:22.014Z,3.55
2023-04-30T18:35:51.442Z,4.05
2023-04-30T18:38:18.797Z,4.18
2023-04-30T18:40:46.023Z,6.00
2023-04-30T18:43:14.437Z,9.07
2023-04-30T18:45:41.713Z,4.80
2023-04-30T18:48:09.082Z,4.57
2023-04-30T18:50:37.113Z,4.25
2023-04-30T18:53:04.417Z,4.70
2023-04-30T18:55:31.559Z,4.18
2023-04-30T18:57:59.671Z,4.70
2023-04-30T19:00:26.818Z,4.20
2023-04-30T19:02:54.924Z,4.25
2023-04-30T19:05:22.318Z,5.45
2023-04-30T19:07:49.471Z,4.22
2023-04-30T19:10:16.801Z,4.53
2023-04-30T19:12:44.076Z,4.28
2023-04-30T19:15:14.849Z,4.75
2023-04-30T19:17:42.385Z,8.32
2023-04-30T19:20:10.315Z,7.15
2023-04-30T19:22:37.829Z,4.75
2023-04-30T19:25:05.353Z,6.47
2023-04-30T19:27:32.480Z,5.88
2023-04-30T19:29:59.585Z,3.97
2023-04-30T19:32:26.898Z,3.95
2023-04-30T19:34:54.483Z,3.50
2023-04-30T19:37:21.765Z,3.58
2023-04-30T19:39:48.902Z,4.60
2023-04-30T19:42:16.521Z,4.63
2023-04-30T19:44:43.638Z,3.88
2023-04-30T19:47:10.756Z,6.88
2023-04-30T19:49:37.974Z,4.40
2023-04-30T19:52:07.695Z,4.72
2023-04-30T19:54:34.876Z,6.75
2023-04-30T19:57:02.185Z,3.75
2023-04-30T19:59:29.271Z,5.63
2023-04-30T20:01:56.473Z,4.88
2023-04-30T20:04:23.661Z,7.28
2023-04-30T20:06:56.803Z,4.88
2023-04-30T20:09:24.179Z,4.70
2023-04-30T20:11:51.699Z,4.97
2023-04-30T20:14:19.575Z,6.40
2023-04-30T20:16:52.246Z,4.82
2023-04-30T20:19:19.480Z,5.30
2023-04-30T20:21:48.266Z,4.97
2023-04-30T20:24:16.015Z,6.15
2023-04-30T20:26:43.410Z,5.85
2023-04-30T20:29:10.613Z,5.05
2023-04-30T20:31:38.373Z,5.80
2023-04-30T20:34:05.641Z,4.32
2023-04-30T20:36:32.773Z,6.63
2023-04-30T20:39:00.163Z,5.00
2023-04-30T20:41:28.204Z,4.47
2023-04-30T20:43:55.353Z,4.60
2023-04-30T20:46:24.282Z,7.60
2023-04-30T20:48:53.630Z,7.72
2023-04-30T20:51:20.879Z,5.40
2023-04-30T20:53:47.962Z,5.70
2023-04-30T20:56:15.145Z,5.25
2023-04-30T20:58:42.953Z,6.55
2023-04-30T21:01:10.111Z,5.90
2023-04-30T21:03:37.351Z,3.78
2023-04-30T21:06:05.186Z,4.47
2023-04-30T21:08:32.737Z,4.63
2023-04-30T21:10:59.864Z,4.25
2023-04-30T21:13:27.009Z,5.32
2023-04-30T21:15:54.230Z,10.65
2023-04-30T21:18:21.426Z,5.60
2023-04-30T21:20:48.670Z,5.18
2023-04-30T21:23:15.832Z,5.35
2023-04-30T21:25:42.950Z,4.93
2023-04-30T21:28:10.134Z,5.80
2023-04-30T21:30:37.359Z,5.78
2023-04-30T21:33:04.744Z,5.00
2023-04-30T21:35:33.065Z,5.75
2023-04-30T21:38:00.625Z,7.45
2023-04-30T21:40:28.141Z,4.60
2023-04-30T21:42:55.617Z,5.32
2023-04-30T21:45:22.893Z,5.68
2023-04-30T21:47:50.089Z,4.60
2023-04-30T21:50:17.342Z,7.57
2023-04-30T21:52:44.564Z,6.88
2023-04-30T21:55:12.281Z,6.60
2023-04-30T21:57:39.670Z,5.10
2023-04-30T22:00:07.267Z,4.90
2023-04-30T22:02:34.857Z,5.25
2023-04-30T22:05:02.247Z,9.55
2023-04-30T22:07:29.629Z,5.18
2023-04-30T22:09:57.459Z,6.75
2023-04-30T22:12:28.068Z,7.13
2023-04-30T22:14:55.736Z,5.88
2023-04-30T22:17:22.972Z,3.70
2023-04-30T22:19:50.095Z,4.40
2023-04-30T22:22:17.349Z,5.45
2023-04-30T22:24:44.446Z,5.25
2023-04-30T22:27:11.646Z,5.65
2023-04-30T22:29:38.784Z,7.18
2023-04-30T22:32:07.132Z,6.32
2023-04-30T22:34:39.222Z,6.88
2023-04-30T22:37:06.662Z,6.13
2023-04-30T22:39:33.773Z,10.70
2023-04-30T22:42:01.033Z,5.45
2023-04-30T22:44:28.520Z,4.82
2023-04-30T22:46:58.000Z,6.65
2023-04-30T22:49:31.301Z,5.57
2023-04-30T22:51:59.167Z,4.95
2023-04-30T22:54:26.347Z,4.50
2023-04-30T22:56:53.583Z,5.53
2023-04-30T22:59:20.815Z,5.93
2023-04-30T23:01:48.059Z,5.65
2023-04-30T23:04:15.485Z,4.28
2023-04-30T23:06:42.981Z,7.18
2023-04-30T23:09:10.318Z,5.13
2023-04-30T23:11:37.513Z,3.83
2023-04-30T23:14:04.702Z,4.07
2023-04-30T23:16:32.087Z,6.47
2023-04-30T23:18:59.318Z,5.40
2023-04-30T23:21:26.842Z,4.30
2023-04-30T23:23:54.046Z,5.53
2023-04-30T23:26:21.383Z,5.10
2023-04-30T23:28:48.572Z,4.22
2023-04-30T23:31:17.687Z,7.20
2023-04-30T23:33:45.050Z,7.22
2023-04-30T23:36:12.293Z,5.18
2023-04-30T23:38:39.428Z,4.70
2023-04-30T23:41:06.552Z,5.47
2023-04-30T23:43:33.794Z,6.72
2023-04-30T23:46:01.091Z,7.25
2023-04-30T23:48:28.325Z,6.57
2023-04-30T23:51:02.310Z,8.52
2023-04-30T23:53:29.721Z,5.72
2023-04-30T23:55:57.862Z,5.40
2023-04-30T23:58:25.394Z,5.15
